La Sarre, Canada
Current Conditions -  °F | °C
As of 2:00 PM on Thursday 30 Oct 2014 (Local Time) from CYUY Reporting Station
Snow Showers Snow Showers  
Wind Chill: -2°   Ceiling: 2500
Heat Index:   Visibility: 15mi
Dew Point: -4°   Wind: 6mph
Humidity: 70%   Direction: 290°WNW
Pressure: 30"   Gusts: NA
Location:  48.8°N, 79.2°W
Report Text: CYUY 301800Z 29005KT 270V350 15SM -SHSN FEW015 BKN025 BKN210 01/M04 A3000 RMK CF1SC7CI1 CF TR CI TR SLP173
Loading
Personal Weather Stations






























Interactive Weather Map
Tropical Storm Tracking
New forecast layout! Learn more

10-Day Weather Forecast

Advertisements
Track Severe Weather on mobile